Terminal Aerodrome Forecast
Issued by NWS New Orleans/Baton Rouge, LA

Home | Current Version | Previous Version | Text Only | Print | Product List | Glossary On
Versions: 1 2 3 4 5 6 7 8 9 10 11 12 13 14 15
000
FTUS44 KLIX 280537
TAFNEW
TAF
KNEW 280537Z 2806/2906 19004KT P6SM SCT250
     FM281500 23006KT P6SM SCT035 SCT120 PROB30 2818/2823 3SM TSRA
      BKN035CB=

USA.gov is the U.S. government's official web portal to all federal, state and local government web resources and services.